Terminal Aerodrome Forecast
Issued by NWS

Home | Current Version | Previous Version | Text Only | Print | Product List | Glossary On
Versions: 1 2 3 4 5 6 7 8 9 10 11 12 13
000
FTUS43 KGRB 211721
TAFRHI
TAF
KRHI 211721Z 2118/2218 18009G17KT P6SM VCSH SCT025 BKN050
     FM212000 18010G18KT P6SM SCT050 BKN090
     FM220000 17011KT P6SM SCT020 BKN040 WS018/19040KT
     FM220300 17011KT P6SM SCT015 OVC035 WS018/20040KT PROB30
      2204/2207 5SM -SHRA BR BKN015
     FM220700 18010KT P6SM -SHRA SCT010 OVC020 WS018/20040KT
      TEMPO 2208/2211 4SM -TSRA BR BKN010CB
     FM221100 21008KT 4SM -SHRA BR OVC008
     FM221500 26009KT P6SM VCSH SCT015 OVC040=

USA.gov is the U.S. government's official web portal to all federal, state and local government web resources and services.